sensor_id;sensor_type;location;lat;lon;timestamp;P1;durP1;ratioP1;P2;durP2;ratioP2
20531;SDS011;10424;52.102;8.084;2022-10-16T00:01:07;9.65;;;6.15;;
20531;SDS011;10424;52.102;8.084;2022-10-16T00:03:36;11.85;;;6.38;;
20531;SDS011;10424;52.102;8.084;2022-10-16T00:06:03;14.15;;;6.63;;
20531;SDS011;10424;52.102;8.084;2022-10-16T00:08:30;10.88;;;6.50;;
20531;SDS011;10424;52.102;8.084;2022-10-16T00:11:00;12.98;;;6.32;;
20531;SDS011;10424;52.102;8.084;2022-10-16T00:13:28;15.18;;;6.95;;
20531;SDS011;10424;52.102;8.084;2022-10-16T00:15:55;12.63;;;6.82;;
20531;SDS011;10424;52.102;8.084;2022-10-16T00:18:22;12.70;;;6.65;;
20531;SDS011;10424;52.102;8.084;2022-10-16T00:20:50;12.43;;;6.50;;
20531;SDS011;10424;52.102;8.084;2022-10-16T00:23:17;15.15;;;7.22;;
20531;SDS011;10424;52.102;8.084;2022-10-16T00:25:44;13.15;;;7.35;;
20531;SDS011;10424;52.102;8.084;2022-10-16T00:28:13;10.57;;;6.40;;
20531;SDS011;10424;52.102;8.084;2022-10-16T00:30:40;11.75;;;7.43;;
20531;SDS011;10424;52.102;8.084;2022-10-16T00:33:08;10.57;;;6.45;;
20531;SDS011;10424;52.102;8.084;2022-10-16T00:35:35;11.82;;;6.80;;
20531;SDS011;10424;52.102;8.084;2022-10-16T00:38:02;16.60;;;7.70;;
20531;SDS011;10424;52.102;8.084;2022-10-16T00:40:29;13.30;;;7.82;;
20531;SDS011;10424;52.102;8.084;2022-10-16T00:42:56;14.00;;;7.35;;
20531;SDS011;10424;52.102;8.084;2022-10-16T00:45:25;13.13;;;8.10;;
20531;SDS011;10424;52.102;8.084;2022-10-16T00:47:53;13.40;;;8.00;;
20531;SDS011;10424;52.102;8.084;2022-10-16T00:50:22;13.18;;;8.02;;
20531;SDS011;10424;52.102;8.084;2022-10-16T00:52:52;16.48;;;8.43;;
20531;SDS011;10424;52.102;8.084;2022-10-16T00:55:19;12.45;;;8.18;;
20531;SDS011;10424;52.102;8.084;2022-10-16T00:57:47;16.48;;;9.00;;
20531;SDS011;10424;52.102;8.084;2022-10-16T01:00:16;13.43;;;8.00;;
20531;SDS011;10424;52.102;8.084;2022-10-16T01:02:51;15.30;;;8.18;;
20531;SDS011;10424;52.102;8.084;2022-10-16T01:05:18;15.95;;;8.07;;
20531;SDS011;10424;52.102;8.084;2022-10-16T01:07:48;13.10;;;7.90;;
20531;SDS011;10424;52.102;8.084;2022-10-16T01:10:21;13.18;;;8.10;;
20531;SDS011;10424;52.102;8.084;2022-10-16T01:12:53;13.38;;;7.82;;
20531;SDS011;10424;52.102;8.084;2022-10-16T01:15:24;13.43;;;8.18;;
20531;SDS011;10424;52.102;8.084;2022-10-16T01:17:56;14.25;;;8.13;;
20531;SDS011;10424;52.102;8.084;2022-10-16T01:20:26;14.65;;;7.82;;
20531;SDS011;10424;52.102;8.084;2022-10-16T01:22:57;16.00;;;8.40;;
20531;SDS011;10424;52.102;8.084;2022-10-16T01:25:29;14.23;;;8.30;;
20531;SDS011;10424;52.102;8.084;2022-10-16T01:28:00;15.05;;;8.20;;
20531;SDS011;10424;52.102;8.084;2022-10-16T01:30:29;13.77;;;8.52;;
20531;SDS011;10424;52.102;8.084;2022-10-16T01:32:59;16.23;;;8.32;;
20531;SDS011;10424;52.102;8.084;2022-10-16T01:35:29;16.35;;;7.90;;
20531;SDS011;10424;52.102;8.084;2022-10-16T01:37:58;13.93;;;7.90;;
20531;SDS011;10424;52.102;8.084;2022-10-16T01:40:27;13.85;;;8.82;;
20531;SDS011;10424;52.102;8.084;2022-10-16T01:42:56;17.90;;;8.88;;
20531;SDS011;10424;52.102;8.084;2022-10-16T01:45:25;15.57;;;8.27;;
20531;SDS011;10424;52.102;8.084;2022-10-16T01:47:53;17.50;;;9.10;;
20531;SDS011;10424;52.102;8.084;2022-10-16T01:50:20;13.73;;;8.30;;
20531;SDS011;10424;52.102;8.084;2022-10-16T01:52:49;14.70;;;8.68;;
20531;SDS011;10424;52.102;8.084;2022-10-16T01:55:18;17.90;;;8.27;;
20531;SDS011;10424;52.102;8.084;2022-10-16T01:57:47;14.05;;;8.70;;
20531;SDS011;10424;52.102;8.084;2022-10-16T02:00:16;17.98;;;8.65;;
20531;SDS011;10424;52.102;8.084;2022-10-16T02:02:46;18.05;;;8.85;;
20531;SDS011;10424;52.102;8.084;2022-10-16T02:05:15;17.77;;;8.60;;
20531;SDS011;10424;52.102;8.084;2022-10-16T02:07:43;15.23;;;8.60;;
20531;SDS011;10424;52.102;8.084;2022-10-16T02:10:11;16.33;;;8.90;;
20531;SDS011;10424;52.102;8.084;2022-10-16T02:12:39;13.20;;;8.20;;
20531;SDS011;10424;52.102;8.084;2022-10-16T02:15:08;13.63;;;8.38;;
20531;SDS011;10424;52.102;8.084;2022-10-16T02:17:35;14.50;;;8.20;;
20531;SDS011;10424;52.102;8.084;2022-10-16T02:20:04;12.35;;;8.25;;
20531;SDS011;10424;52.102;8.084;2022-10-16T02:22:32;14.63;;;8.07;;
20531;SDS011;10424;52.102;8.084;2022-10-16T02:25:01;14.00;;;8.23;;
20531;SDS011;10424;52.102;8.084;2022-10-16T02:27:31;15.57;;;8.82;;
20531;SDS011;10424;52.102;8.084;2022-10-16T02:30:03;14.48;;;8.38;;
20531;SDS011;10424;52.102;8.084;2022-10-16T02:35:17;17.13;;;8.82;;
20531;SDS011;10424;52.102;8.084;2022-10-16T02:37:45;17.33;;;8.90;;
20531;SDS011;10424;52.102;8.084;2022-10-16T02:40:13;15.95;;;9.15;;
20531;SDS011;10424;52.102;8.084;2022-10-16T02:42:40;14.30;;;8.50;;
20531;SDS011;10424;52.102;8.084;2022-10-16T02:45:08;16.80;;;9.15;;
20531;SDS011;10424;52.102;8.084;2022-10-16T02:47:36;15.43;;;8.65;;
20531;SDS011;10424;52.102;8.084;2022-10-16T02:50:04;13.10;;;8.80;;
20531;SDS011;10424;52.102;8.084;2022-10-16T02:52:32;14.18;;;9.30;;
20531;SDS011;10424;52.102;8.084;2022-10-16T02:55:00;16.40;;;8.73;;
20531;SDS011;10424;52.102;8.084;2022-10-16T02:57:27;19.48;;;9.75;;
20531;SDS011;10424;52.102;8.084;2022-10-16T02:59:54;17.05;;;8.75;;
20531;SDS011;10424;52.102;8.084;2022-10-16T03:02:22;17.90;;;9.38;;
20531;SDS011;10424;52.102;8.084;2022-10-16T03:04:49;15.98;;;8.90;;
20531;SDS011;10424;52.102;8.084;2022-10-16T03:07:16;17.98;;;9.60;;
20531;SDS011;10424;52.102;8.084;2022-10-16T03:09:45;15.77;;;8.90;;
20531;SDS011;10424;52.102;8.084;2022-10-16T03:12:12;17.48;;;9.15;;
20531;SDS011;10424;52.102;8.084;2022-10-16T03:14:39;16.83;;;8.52;;
20531;SDS011;10424;52.102;8.084;2022-10-16T03:17:07;14.25;;;9.57;;
20531;SDS011;10424;52.102;8.084;2022-10-16T03:19:34;20.73;;;9.40;;
20531;SDS011;10424;52.102;8.084;2022-10-16T03:22:01;16.25;;;8.60;;
20531;SDS011;10424;52.102;8.084;2022-10-16T03:24:29;16.80;;;9.57;;
20531;SDS011;10424;52.102;8.084;2022-10-16T03:26:57;15.57;;;8.95;;
20531;SDS011;10424;52.102;8.084;2022-10-16T03:29:25;15.02;;;8.75;;
20531;SDS011;10424;52.102;8.084;2022-10-16T03:31:54;16.80;;;8.60;;
20531;SDS011;10424;52.102;8.084;2022-10-16T03:34:21;13.43;;;8.68;;
20531;SDS011;10424;52.102;8.084;2022-10-16T03:36:49;16.55;;;8.68;;
20531;SDS011;10424;52.102;8.084;2022-10-16T03:39:16;16.73;;;8.52;;
20531;SDS011;10424;52.102;8.084;2022-10-16T03:41:44;16.63;;;8.27;;
20531;SDS011;10424;52.102;8.084;2022-10-16T03:44:13;13.93;;;8.35;;
20531;SDS011;10424;52.102;8.084;2022-10-16T03:46:40;12.05;;;8.18;;
20531;SDS011;10424;52.102;8.084;2022-10-16T03:49:07;11.85;;;7.63;;
20531;SDS011;10424;52.102;8.084;2022-10-16T03:51:34;14.82;;;8.00;;
20531;SDS011;10424;52.102;8.084;2022-10-16T03:54:02;15.35;;;8.25;;
20531;SDS011;10424;52.102;8.084;2022-10-16T03:56:29;12.65;;;7.50;;
20531;SDS011;10424;52.102;8.084;2022-10-16T03:58:57;11.45;;;7.45;;
20531;SDS011;10424;52.102;8.084;2022-10-16T04:01:25;13.15;;;7.45;;
20531;SDS011;10424;52.102;8.084;2022-10-16T04:03:52;10.30;;;7.38;;
20531;SDS011;10424;52.102;8.084;2022-10-16T04:06:20;11.38;;;7.18;;
20531;SDS011;10424;52.102;8.084;2022-10-16T04:08:47;14.55;;;7.40;;
20531;SDS011;10424;52.102;8.084;2022-10-16T04:11:14;11.25;;;7.30;;
20531;SDS011;10424;52.102;8.084;2022-10-16T04:13:41;12.55;;;7.38;;
20531;SDS011;10424;52.102;8.084;2022-10-16T04:16:09;14.70;;;7.80;;
20531;SDS011;10424;52.102;8.084;2022-10-16T04:18:37;13.38;;;8.05;;
20531;SDS011;10424;52.102;8.084;2022-10-16T04:21:05;11.55;;;7.30;;
20531;SDS011;10424;52.102;8.084;2022-10-16T04:23:33;12.50;;;7.00;;
20531;SDS011;10424;52.102;8.084;2022-10-16T04:26:00;12.07;;;7.32;;
20531;SDS011;10424;52.102;8.084;2022-10-16T04:28:28;13.38;;;7.30;;
20531;SDS011;10424;52.102;8.084;2022-10-16T04:30:55;11.05;;;6.80;;
20531;SDS011;10424;52.102;8.084;2022-10-16T04:33:22;10.05;;;6.40;;
20531;SDS011;10424;52.102;8.084;2022-10-16T04:35:57;11.13;;;6.65;;
20531;SDS011;10424;52.102;8.084;2022-10-16T04:38:24;12.55;;;6.78;;
20531;SDS011;10424;52.102;8.084;2022-10-16T04:40:51;10.00;;;6.45;;
20531;SDS011;10424;52.102;8.084;2022-10-16T04:43:19;9.68;;;6.60;;
20531;SDS011;10424;52.102;8.084;2022-10-16T04:45:46;9.85;;;6.70;;
20531;SDS011;10424;52.102;8.084;2022-10-16T04:48:15;9.77;;;6.20;;
20531;SDS011;10424;52.102;8.084;2022-10-16T04:50:42;8.48;;;6.03;;
20531;SDS011;10424;52.102;8.084;2022-10-16T04:53:11;8.65;;;6.13;;
20531;SDS011;10424;52.102;8.084;2022-10-16T04:55:38;11.27;;;6.25;;
20531;SDS011;10424;52.102;8.084;2022-10-16T04:58:06;10.95;;;6.15;;
20531;SDS011;10424;52.102;8.084;2022-10-16T05:00:33;10.32;;;5.80;;
20531;SDS011;10424;52.102;8.084;2022-10-16T05:03:01;10.88;;;6.28;;
20531;SDS011;10424;52.102;8.084;2022-10-16T05:05:31;8.57;;;5.57;;
20531;SDS011;10424;52.102;8.084;2022-10-16T05:07:58;10.27;;;6.07;;
20531;SDS011;10424;52.102;8.084;2022-10-16T05:10:30;8.55;;;5.75;;
20531;SDS011;10424;52.102;8.084;2022-10-16T05:12:57;9.35;;;6.55;;
20531;SDS011;10424;52.102;8.084;2022-10-16T05:15:24;7.75;;;5.45;;
20531;SDS011;10424;52.102;8.084;2022-10-16T05:17:52;9.38;;;6.32;;
20531;SDS011;10424;52.102;8.084;2022-10-16T05:20:19;8.95;;;5.90;;
20531;SDS011;10424;52.102;8.084;2022-10-16T05:22:47;10.13;;;5.80;;
20531;SDS011;10424;52.102;8.084;2022-10-16T05:25:14;7.78;;;5.90;;
20531;SDS011;10424;52.102;8.084;2022-10-16T05:27:43;9.48;;;5.85;;
20531;SDS011;10424;52.102;8.084;2022-10-16T05:30:10;8.00;;;5.32;;
20531;SDS011;10424;52.102;8.084;2022-10-16T05:32:37;7.18;;;5.20;;
20531;SDS011;10424;52.102;8.084;2022-10-16T05:35:05;8.55;;;5.20;;
20531;SDS011;10424;52.102;8.084;2022-10-16T05:37:32;12.10;;;5.50;;
20531;SDS011;10424;52.102;8.084;2022-10-16T05:39:59;8.93;;;4.70;;
20531;SDS011;10424;52.102;8.084;2022-10-16T05:42:27;6.55;;;4.93;;
20531;SDS011;10424;52.102;8.084;2022-10-16T05:44:56;6.20;;;4.72;;
20531;SDS011;10424;52.102;8.084;2022-10-16T05:47:23;5.78;;;4.40;;
20531;SDS011;10424;52.102;8.084;2022-10-16T05:49:50;8.73;;;4.25;;
20531;SDS011;10424;52.102;8.084;2022-10-16T05:52:18;6.05;;;4.38;;
20531;SDS011;10424;52.102;8.084;2022-10-16T05:54:45;6.93;;;4.78;;
20531;SDS011;10424;52.102;8.084;2022-10-16T05:57:12;6.72;;;4.40;;
20531;SDS011;10424;52.102;8.084;2022-10-16T05:59:40;5.63;;;4.15;;
20531;SDS011;10424;52.102;8.084;2022-10-16T06:02:09;6.50;;;4.07;;
20531;SDS011;10424;52.102;8.084;2022-10-16T06:04:38;4.30;;;3.78;;
20531;SDS011;10424;52.102;8.084;2022-10-16T06:07:06;7.97;;;3.78;;
20531;SDS011;10424;52.102;8.084;2022-10-16T06:09:33;6.90;;;4.00;;
20531;SDS011;10424;52.102;8.084;2022-10-16T06:12:00;5.97;;;3.90;;
20531;SDS011;10424;52.102;8.084;2022-10-16T06:14:27;7.43;;;3.90;;
20531;SDS011;10424;52.102;8.084;2022-10-16T06:16:54;6.93;;;3.95;;
20531;SDS011;10424;52.102;8.084;2022-10-16T06:19:23;4.32;;;3.63;;
20531;SDS011;10424;52.102;8.084;2022-10-16T06:21:51;6.55;;;3.17;;
20531;SDS011;10424;52.102;8.084;2022-10-16T06:24:18;5.57;;;2.95;;
20531;SDS011;10424;52.102;8.084;2022-10-16T06:26:45;9.48;;;2.92;;
20531;SDS011;10424;52.102;8.084;2022-10-16T06:29:12;4.60;;;3.03;;
20531;SDS011;10424;52.102;8.084;2022-10-16T06:31:40;6.10;;;3.00;;
20531;SDS011;10424;52.102;8.084;2022-10-16T06:34:08;3.50;;;2.17;;
20531;SDS011;10424;52.102;8.084;2022-10-16T06:36:38;4.22;;;2.70;;
20531;SDS011;10424;52.102;8.084;2022-10-16T06:39:06;3.00;;;2.35;;
20531;SDS011;10424;52.102;8.084;2022-10-16T06:41:33;6.25;;;2.50;;
20531;SDS011;10424;52.102;8.084;2022-10-16T06:44:01;4.85;;;2.60;;
20531;SDS011;10424;52.102;8.084;2022-10-16T06:46:28;5.53;;;3.33;;
20531;SDS011;10424;52.102;8.084;2022-10-16T06:48:55;13.82;;;5.72;;
20531;SDS011;10424;52.102;8.084;2022-10-16T06:51:23;3.92;;;2.45;;
20531;SDS011;10424;52.102;8.084;2022-10-16T06:53:52;3.40;;;2.60;;
20531;SDS011;10424;52.102;8.084;2022-10-16T06:56:22;2.83;;;2.30;;
20531;SDS011;10424;52.102;8.084;2022-10-16T06:58:50;4.07;;;2.88;;
20531;SDS011;10424;52.102;8.084;2022-10-16T07:01:18;4.57;;;2.83;;
20531;SDS011;10424;52.102;8.084;2022-10-16T07:03:46;5.72;;;2.55;;
20531;SDS011;10424;52.102;8.084;2022-10-16T07:06:14;4.93;;;2.92;;
20531;SDS011;10424;52.102;8.084;2022-10-16T07:08:42;3.53;;;2.80;;
20531;SDS011;10424;52.102;8.084;2022-10-16T07:11:12;4.78;;;2.58;;
20531;SDS011;10424;52.102;8.084;2022-10-16T07:13:40;2.30;;;1.90;;
20531;SDS011;10424;52.102;8.084;2022-10-16T07:16:08;3.22;;;2.40;;
20531;SDS011;10424;52.102;8.084;2022-10-16T07:18:35;2.97;;;2.13;;
20531;SDS011;10424;52.102;8.084;2022-10-16T07:21:04;2.25;;;1.90;;
20531;SDS011;10424;52.102;8.084;2022-10-16T07:23:32;6.13;;;2.05;;
20531;SDS011;10424;52.102;8.084;2022-10-16T07:26:00;3.22;;;2.17;;
20531;SDS011;10424;52.102;8.084;2022-10-16T07:28:28;2.33;;;1.38;;
20531;SDS011;10424;52.102;8.084;2022-10-16T07:30:59;3.47;;;1.50;;
20531;SDS011;10424;52.102;8.084;2022-10-16T07:33:27;3.92;;;1.80;;
20531;SDS011;10424;52.102;8.084;2022-10-16T07:35:54;3.80;;;1.55;;
20531;SDS011;10424;52.102;8.084;2022-10-16T07:38:21;2.95;;;1.50;;
20531;SDS011;10424;52.102;8.084;2022-10-16T07:40:55;2.85;;;1.75;;
20531;SDS011;10424;52.102;8.084;2022-10-16T07:43:23;3.38;;;1.75;;
20531;SDS011;10424;52.102;8.084;2022-10-16T07:45:52;3.67;;;1.42;;
20531;SDS011;10424;52.102;8.084;2022-10-16T07:48:20;2.30;;;1.45;;
20531;SDS011;10424;52.102;8.084;2022-10-16T07:50:47;2.03;;;1.30;;
20531;SDS011;10424;52.102;8.084;2022-10-16T07:53:15;3.05;;;1.42;;
20531;SDS011;10424;52.102;8.084;2022-10-16T07:55:42;2.83;;;1.33;;
20531;SDS011;10424;52.102;8.084;2022-10-16T07:58:09;3.22;;;1.27;;
20531;SDS011;10424;52.102;8.084;2022-10-16T08:00:37;2.85;;;1.20;;
20531;SDS011;10424;52.102;8.084;2022-10-16T08:03:06;2.65;;;1.10;;
20531;SDS011;10424;52.102;8.084;2022-10-16T08:05:33;2.38;;;1.10;;
20531;SDS011;10424;52.102;8.084;2022-10-16T08:08:00;2.20;;;1.20;;
20531;SDS011;10424;52.102;8.084;2022-10-16T08:10:28;4.75;;;1.20;;
20531;SDS011;10424;52.102;8.084;2022-10-16T08:12:56;2.30;;;1.20;;
20531;SDS011;10424;52.102;8.084;2022-10-16T08:15:24;5.45;;;1.27;;
20531;SDS011;10424;52.102;8.084;2022-10-16T08:17:55;3.80;;;1.30;;
20531;SDS011;10424;52.102;8.084;2022-10-16T08:20:24;2.13;;;1.30;;
20531;SDS011;10424;52.102;8.084;2022-10-16T08:22:52;1.92;;;1.30;;
20531;SDS011;10424;52.102;8.084;2022-10-16T08:25:20;2.97;;;1.30;;
20531;SDS011;10424;52.102;8.084;2022-10-16T08:27:47;3.33;;;1.13;;
20531;SDS011;10424;52.102;8.084;2022-10-16T08:30:15;5.10;;;1.50;;
20531;SDS011;10424;52.102;8.084;2022-10-16T08:32:42;3.67;;;1.40;;
20531;SDS011;10424;52.102;8.084;2022-10-16T08:35:11;2.72;;;1.40;;
20531;SDS011;10424;52.102;8.084;2022-10-16T08:37:41;2.70;;;1.40;;
20531;SDS011;10424;52.102;8.084;2022-10-16T08:40:13;3.83;;;1.50;;
20531;SDS011;10424;52.102;8.084;2022-10-16T08:42:47;4.95;;;1.50;;
20531;SDS011;10424;52.102;8.084;2022-10-16T08:45:29;4.47;;;1.63;;
20531;SDS011;10424;52.102;8.084;2022-10-16T08:48:00;2.83;;;1.70;;
20531;SDS011;10424;52.102;8.084;2022-10-16T08:50:33;2.08;;;1.50;;
20531;SDS011;10424;52.102;8.084;2022-10-16T08:53:05;3.20;;;1.30;;
20531;SDS011;10424;52.102;8.084;2022-10-16T08:55:33;3.70;;;1.58;;
20531;SDS011;10424;52.102;8.084;2022-10-16T08:58:01;2.33;;;1.50;;
20531;SDS011;10424;52.102;8.084;2022-10-16T09:00:29;3.42;;;1.48;;
20531;SDS011;10424;52.102;8.084;2022-10-16T09:02:59;1.92;;;1.50;;
20531;SDS011;10424;52.102;8.084;2022-10-16T09:05:41;2.75;;;1.42;;
20531;SDS011;10424;52.102;8.084;2022-10-16T09:08:14;3.78;;;1.40;;
20531;SDS011;10424;52.102;8.084;2022-10-16T09:10:46;2.85;;;1.58;;
20531;SDS011;10424;52.102;8.084;2022-10-16T09:13:18;2.47;;;1.33;;
20531;SDS011;10424;52.102;8.084;2022-10-16T09:15:48;3.75;;;1.13;;
20531;SDS011;10424;52.102;8.084;2022-10-16T09:18:19;6.22;;;1.40;;
20531;SDS011;10424;52.102;8.084;2022-10-16T09:20:49;9.13;;;1.20;;
20531;SDS011;10424;52.102;8.084;2022-10-16T09:23:22;2.75;;;1.30;;
20531;SDS011;10424;52.102;8.084;2022-10-16T09:25:52;3.20;;;1.23;;
20531;SDS011;10424;52.102;8.084;2022-10-16T09:28:19;1.92;;;1.23;;
20531;SDS011;10424;52.102;8.084;2022-10-16T09:30:47;6.25;;;1.00;;
20531;SDS011;10424;52.102;8.084;2022-10-16T09:33:15;3.58;;;1.30;;
20531;SDS011;10424;52.102;8.084;2022-10-16T09:35:43;3.33;;;1.30;;
20531;SDS011;10424;52.102;8.084;2022-10-16T09:38:22;3.65;;;1.20;;
20531;SDS011;10424;52.102;8.084;2022-10-16T09:40:49;3.90;;;1.17;;
20531;SDS011;10424;52.102;8.084;2022-10-16T09:43:20;2.53;;;1.00;;
20531;SDS011;10424;52.102;8.084;2022-10-16T09:45:54;2.45;;;1.15;;
20531;SDS011;10424;52.102;8.084;2022-10-16T09:48:22;2.80;;;1.38;;
20531;SDS011;10424;52.102;8.084;2022-10-16T09:50:55;4.70;;;1.33;;
20531;SDS011;10424;52.102;8.084;2022-10-16T09:53:24;3.42;;;1.42;;
20531;SDS011;10424;52.102;8.084;2022-10-16T09:55:53;2.47;;;1.25;;
20531;SDS011;10424;52.102;8.084;2022-10-16T09:58:21;4.72;;;1.10;;
20531;SDS011;10424;52.102;8.084;2022-10-16T10:00:49;4.65;;;1.10;;
20531;SDS011;10424;52.102;8.084;2022-10-16T10:03:32;2.05;;;1.10;;
20531;SDS011;10424;52.102;8.084;2022-10-16T10:06:06;5.50;;;1.20;;
20531;SDS011;10424;52.102;8.084;2022-10-16T10:08:39;2.28;;;0.98;;
20531;SDS011;10424;52.102;8.084;2022-10-16T10:11:08;3.00;;;1.17;;
20531;SDS011;10424;52.102;8.084;2022-10-16T10:13:37;4.60;;;1.00;;
20531;SDS011;10424;52.102;8.084;2022-10-16T10:16:05;4.32;;;0.95;;
20531;SDS011;10424;52.102;8.084;2022-10-16T10:18:38;2.60;;;1.10;;
20531;SDS011;10424;52.102;8.084;2022-10-16T10:21:12;3.40;;;1.02;;
20531;SDS011;10424;52.102;8.084;2022-10-16T10:23:46;1.95;;;0.90;;
20531;SDS011;10424;52.102;8.084;2022-10-16T10:26:26;3.13;;;1.30;;
20531;SDS011;10424;52.102;8.084;2022-10-16T10:28:55;4.07;;;1.00;;
20531;SDS011;10424;52.102;8.084;2022-10-16T10:31:26;2.30;;;1.02;;
20531;SDS011;10424;52.102;8.084;2022-10-16T10:33:56;2.95;;;1.20;;
20531;SDS011;10424;52.102;8.084;2022-10-16T10:36:27;4.40;;;1.10;;
20531;SDS011;10424;52.102;8.084;2022-10-16T10:39:06;3.78;;;1.08;;
20531;SDS011;10424;52.102;8.084;2022-10-16T10:44:28;6.13;;;1.30;;
20531;SDS011;10424;52.102;8.084;2022-10-16T10:47:17;2.47;;;1.05;;
20531;SDS011;10424;52.102;8.084;2022-10-16T10:49:56;3.58;;;0.90;;
20531;SDS011;10424;52.102;8.084;2022-10-16T10:52:41;1.67;;;0.80;;
20531;SDS011;10424;52.102;8.084;2022-10-16T10:55:18;2.05;;;1.00;;
20531;SDS011;10424;52.102;8.084;2022-10-16T10:58:01;4.07;;;1.05;;
20531;SDS011;10424;52.102;8.084;2022-10-16T11:00:30;3.78;;;1.05;;
20531;SDS011;10424;52.102;8.084;2022-10-16T11:03:11;5.05;;;0.90;;
20531;SDS011;10424;52.102;8.084;2022-10-16T11:05:43;1.92;;;0.82;;
20531;SDS011;10424;52.102;8.084;2022-10-16T11:08:16;4.68;;;1.00;;
20531;SDS011;10424;52.102;8.084;2022-10-16T11:10:52;3.05;;;1.00;;
20531;SDS011;10424;52.102;8.084;2022-10-16T11:13:28;3.00;;;1.00;;
20531;SDS011;10424;52.102;8.084;2022-10-16T11:16:07;1.73;;;0.95;;
20531;SDS011;10424;52.102;8.084;2022-10-16T11:18:40;2.47;;;1.10;;
20531;SDS011;10424;52.102;8.084;2022-10-16T11:21:13;2.53;;;1.10;;
20531;SDS011;10424;52.102;8.084;2022-10-16T11:23:42;3.90;;;1.10;;
20531;SDS011;10424;52.102;8.084;2022-10-16T11:26:15;2.97;;;1.23;;
20531;SDS011;10424;52.102;8.084;2022-10-16T11:28:46;3.53;;;1.42;;
20531;SDS011;10424;52.102;8.084;2022-10-16T11:31:16;3.97;;;1.60;;
20531;SDS011;10424;52.102;8.084;2022-10-16T11:33:47;3.70;;;1.60;;
20531;SDS011;10424;52.102;8.084;2022-10-16T11:36:22;5.25;;;1.73;;
20531;SDS011;10424;52.102;8.084;2022-10-16T11:38:53;3.10;;;1.60;;
20531;SDS011;10424;52.102;8.084;2022-10-16T11:41:35;4.32;;;1.50;;
20531;SDS011;10424;52.102;8.084;2022-10-16T11:44:12;3.40;;;1.60;;
20531;SDS011;10424;52.102;8.084;2022-10-16T11:46:48;4.40;;;1.60;;
20531;SDS011;10424;52.102;8.084;2022-10-16T11:49:25;2.38;;;1.35;;
20531;SDS011;10424;52.102;8.084;2022-10-16T11:51:59;2.85;;;1.13;;
20531;SDS011;10424;52.102;8.084;2022-10-16T11:54:35;3.53;;;1.15;;
20531;SDS011;10424;52.102;8.084;2022-10-16T11:57:08;4.78;;;0.93;;
20531;SDS011;10424;52.102;8.084;2022-10-16T11:59:36;3.70;;;1.02;;
20531;SDS011;10424;52.102;8.084;2022-10-16T12:02:13;1.27;;;0.70;;
20531;SDS011;10424;52.102;8.084;2022-10-16T12:04:45;2.28;;;0.90;;
20531;SDS011;10424;52.102;8.084;2022-10-16T12:07:17;3.60;;;1.00;;
20531;SDS011;10424;52.102;8.084;2022-10-16T12:09:45;3.33;;;1.10;;
20531;SDS011;10424;52.102;8.084;2022-10-16T12:12:24;2.35;;;0.93;;
20531;SDS011;10424;52.102;8.084;2022-10-16T12:14:59;4.30;;;0.90;;
20531;SDS011;10424;52.102;8.084;2022-10-16T12:17:33;4.53;;;1.00;;
20531;SDS011;10424;52.102;8.084;2022-10-16T12:20:12;2.90;;;0.80;;
20531;SDS011;10424;52.102;8.084;2022-10-16T12:22:49;2.67;;;0.80;;
20531;SDS011;10424;52.102;8.084;2022-10-16T12:25:20;2.63;;;0.70;;
20531;SDS011;10424;52.102;8.084;2022-10-16T12:27:54;2.72;;;0.73;;
20531;SDS011;10424;52.102;8.084;2022-10-16T12:30:23;4.22;;;0.95;;
20531;SDS011;10424;52.102;8.084;2022-10-16T12:32:54;3.78;;;0.88;;
20531;SDS011;10424;52.102;8.084;2022-10-16T12:35:23;2.60;;;0.80;;
20531;SDS011;10424;52.102;8.084;2022-10-16T12:37:51;3.85;;;0.80;;
20531;SDS011;10424;52.102;8.084;2022-10-16T12:40:26;1.88;;;0.80;;
20531;SDS011;10424;52.102;8.084;2022-10-16T12:42:55;5.47;;;0.80;;
20531;SDS011;10424;52.102;8.084;2022-10-16T12:45:26;3.03;;;0.80;;
20531;SDS011;10424;52.102;8.084;2022-10-16T12:47:54;4.32;;;0.90;;
20531;SDS011;10424;52.102;8.084;2022-10-16T12:50:26;2.58;;;0.70;;
20531;SDS011;10424;52.102;8.084;2022-10-16T12:52:55;2.65;;;0.70;;
20531;SDS011;10424;52.102;8.084;2022-10-16T12:55:23;4.40;;;0.82;;
20531;SDS011;10424;52.102;8.084;2022-10-16T12:58:03;3.75;;;1.08;;
20531;SDS011;10424;52.102;8.084;2022-10-16T13:00:34;2.22;;;0.68;;
20531;SDS011;10424;52.102;8.084;2022-10-16T13:03:23;2.53;;;0.70;;
20531;SDS011;10424;52.102;8.084;2022-10-16T13:05:59;4.28;;;0.90;;
20531;SDS011;10424;52.102;8.084;2022-10-16T13:08:42;1.65;;;0.75;;
20531;SDS011;10424;52.102;8.084;2022-10-16T13:11:14;3.83;;;0.93;;
20531;SDS011;10424;52.102;8.084;2022-10-16T13:13:56;3.47;;;0.90;;
20531;SDS011;10424;52.102;8.084;2022-10-16T13:16:26;2.28;;;0.80;;
20531;SDS011;10424;52.102;8.084;2022-10-16T13:18:59;4.03;;;0.82;;
20531;SDS011;10424;52.102;8.084;2022-10-16T13:21:34;2.05;;;0.90;;
20531;SDS011;10424;52.102;8.084;2022-10-16T13:24:06;2.22;;;0.88;;
20531;SDS011;10424;52.102;8.084;2022-10-16T13:26:39;2.78;;;0.80;;
20531;SDS011;10424;52.102;8.084;2022-10-16T13:29:10;5.53;;;0.80;;
20531;SDS011;10424;52.102;8.084;2022-10-16T13:31:39;4.32;;;0.75;;
20531;SDS011;10424;52.102;8.084;2022-10-16T13:34:09;2.50;;;0.70;;
20531;SDS011;10424;52.102;8.084;2022-10-16T13:36:42;1.30;;;0.80;;
20531;SDS011;10424;52.102;8.084;2022-10-16T13:39:11;3.88;;;0.88;;
20531;SDS011;10424;52.102;8.084;2022-10-16T13:41:39;4.40;;;0.80;;
20531;SDS011;10424;52.102;8.084;2022-10-16T13:44:11;4.45;;;0.90;;
20531;SDS011;10424;52.102;8.084;2022-10-16T13:46:40;2.22;;;0.68;;
20531;SDS011;10424;52.102;8.084;2022-10-16T13:49:12;3.10;;;0.70;;
20531;SDS011;10424;52.102;8.084;2022-10-16T13:51:40;3.72;;;0.70;;
20531;SDS011;10424;52.102;8.084;2022-10-16T13:54:08;4.45;;;0.80;;
20531;SDS011;10424;52.102;8.084;2022-10-16T13:56:38;1.90;;;0.80;;
20531;SDS011;10424;52.102;8.084;2022-10-16T13:59:06;2.90;;;0.90;;
20531;SDS011;10424;52.102;8.084;2022-10-16T14:01:39;3.40;;;0.80;;
20531;SDS011;10424;52.102;8.084;2022-10-16T14:04:07;3.25;;;0.80;;
20531;SDS011;10424;52.102;8.084;2022-10-16T14:06:35;1.75;;;0.60;;
20531;SDS011;10424;52.102;8.084;2022-10-16T14:09:05;3.22;;;0.70;;
20531;SDS011;10424;52.102;8.084;2022-10-16T14:11:33;4.28;;;0.93;;
20531;SDS011;10424;52.102;8.084;2022-10-16T14:14:00;3.15;;;0.70;;
20531;SDS011;10424;52.102;8.084;2022-10-16T14:16:29;2.50;;;0.70;;
20531;SDS011;10424;52.102;8.084;2022-10-16T14:18:59;4.10;;;0.80;;
20531;SDS011;10424;52.102;8.084;2022-10-16T14:21:27;2.28;;;0.90;;
20531;SDS011;10424;52.102;8.084;2022-10-16T14:23:55;2.53;;;0.70;;
20531;SDS011;10424;52.102;8.084;2022-10-16T14:26:23;3.13;;;0.80;;
20531;SDS011;10424;52.102;8.084;2022-10-16T14:29:01;3.15;;;0.90;;
20531;SDS011;10424;52.102;8.084;2022-10-16T14:31:31;2.08;;;0.75;;
20531;SDS011;10424;52.102;8.084;2022-10-16T14:34:00;3.38;;;0.90;;
20531;SDS011;10424;52.102;8.084;2022-10-16T14:36:27;2.70;;;0.68;;
20531;SDS011;10424;52.102;8.084;2022-10-16T14:38:59;2.92;;;0.77;;
20531;SDS011;10424;52.102;8.084;2022-10-16T14:41:27;1.75;;;0.70;;
20531;SDS011;10424;52.102;8.084;2022-10-16T14:43:56;2.38;;;0.60;;
20531;SDS011;10424;52.102;8.084;2022-10-16T14:46:28;3.20;;;0.75;;
20531;SDS011;10424;52.102;8.084;2022-10-16T14:48:58;2.47;;;0.68;;
20531;SDS011;10424;52.102;8.084;2022-10-16T14:51:28;1.95;;;0.60;;
20531;SDS011;10424;52.102;8.084;2022-10-16T14:53:55;2.15;;;0.90;;
20531;SDS011;10424;52.102;8.084;2022-10-16T14:56:23;2.88;;;0.70;;
20531;SDS011;10424;52.102;8.084;2022-10-16T14:58:51;1.35;;;0.80;;
20531;SDS011;10424;52.102;8.084;2022-10-16T15:01:19;3.67;;;0.82;;
20531;SDS011;10424;52.102;8.084;2022-10-16T15:03:47;1.95;;;0.60;;